Time;durP1;ratioP1;P1;durP2;ratioP2;P2;SDS_P1;SDS_P2;PMS_P1;PMS_P2;Temp;Humidity;BMP_temperature;BMP_pressure;BME280_temperature;BME280_humidity;BME280_pressure;Samples;Min_cycle;Max_cycle;Signal;HPM_P1;HPM_P2
2021/01/20 00:01:12;;;;;;;15.93;6.60;;;7.70;99.90;;;;;;5054917;28;20036;-66
2021/01/20 00:03:43;;;;;;;14.73;6.88;;;7.70;99.90;;;;;;5064650;28;20044;-66
2021/01/20 00:06:12;;;;;;;11.27;7.05;;;7.80;99.90;;;;;;5062527;28;20049;-66
2021/01/20 00:08:40;;;;;;;10.85;6.95;;;7.70;99.90;;;;;;5071556;28;20045;-66
2021/01/20 00:11:12;;;;;;;12.70;6.80;;;7.60;99.90;;;;;;5065927;28;20098;-66
2021/01/20 00:13:50;;;;;;;11.20;6.22;;;7.60;99.90;;;;;;5036324;28;20072;-66
2021/01/20 00:16:28;;;;;;;14.48;6.57;;;7.60;99.90;;;;;;5075774;28;20076;-66
2021/01/20 00:19:03;;;;;;;12.85;6.72;;;7.60;99.90;;;;;;5051424;28;20529;-66
2021/01/20 00:21:48;;;;;;;12.98;6.60;;;7.60;99.90;;;;;;5041106;28;20048;-66
2021/01/20 00:31:35;;;;;;;11.27;5.70;;;7.50;99.90;;;;;;5037870;28;20103;-66
2021/01/20 00:41:43;;;;;;;12.13;6.45;;;7.50;99.90;;;;;;5035747;28;20037;-66
2021/01/20 00:48:26;;;;;;;15.27;7.07;;;7.50;99.90;;;;;;5067253;28;20055;-66
2021/01/20 00:51:25;;;;;;;9.93;6.00;;;7.50;99.90;;;;;;5055359;28;20048;-66
2021/01/20 00:53:55;;;;;;;13.75;7.07;;;7.40;99.90;;;;;;5035494;28;20091;-66
2021/01/20 00:56:23;;;;;;;13.10;6.75;;;7.40;99.90;;;;;;5065122;28;20052;-66
2021/01/20 00:58:52;;;;;;;12.95;6.95;;;7.40;99.90;;;;;;5071314;28;20391;-66
2021/01/20 01:01:30;;;;;;;11.05;6.68;;;7.40;99.90;;;;;;5035495;28;20050;-66
2021/01/20 01:04:34;;;;;;;13.70;7.10;;;7.40;99.90;;;;;;5065856;28;20395;-65
2021/01/20 01:13:53;;;;;;;12.45;6.65;;;7.40;99.90;;;;;;5059824;28;20044;-66
2021/01/20 01:16:27;;;;;;;15.18;6.30;;;7.40;99.90;;;;;;5066161;28;20468;-66
2021/01/20 01:19:02;;;;;;;12.23;7.47;;;7.40;99.90;;;;;;5041061;28;20415;-66
2021/01/20 01:21:31;;;;;;;11.40;6.82;;;7.30;99.90;;;;;;5035269;28;20081;-65
2021/01/20 01:24:03;;;;;;;12.77;6.90;;;7.40;99.90;;;;;;5054768;28;20037;-66
2021/01/20 01:27:05;;;;;;;12.75;6.95;;;7.40;99.90;;;;;;5035112;28;20073;-66
2021/01/20 01:29:34;;;;;;;11.68;6.90;;;7.40;99.90;;;;;;5054721;28;20045;-66
2021/01/20 01:31:59;;;;;;;12.10;7.88;;;7.40;99.90;;;;;;5038197;28;20496;-66
2021/01/20 01:34:51;;;;;;;10.88;7.05;;;7.40;99.90;;;;;;5073684;28;20048;-66
2021/01/20 01:44:32;;;;;;;14.43;6.72;;;7.40;99.90;;;;;;5042414;28;20048;-66
2021/01/20 01:47:29;;;;;;;12.50;6.82;;;7.40;99.90;;;;;;5038465;28;20044;-65
2021/01/20 01:57:04;;;;;;;9.25;5.50;;;7.40;99.90;;;;;;5037671;28;20045;-66
2021/01/20 02:04:05;;;;;;;11.00;6.10;;;7.40;99.90;;;;;;5046580;28;20037;-65
2021/01/20 02:06:31;;;;;;;11.73;6.68;;;7.40;99.90;;;;;;5033750;28;20488;-65
2021/01/20 02:09:04;;;;;;;11.88;6.35;;;7.50;99.90;;;;;;5053932;28;20130;-66
2021/01/20 02:12:04;;;;;;;16.77;6.53;;;7.40;99.90;;;;;;5060374;28;20041;-65
2021/01/20 02:15:03;;;;;;;13.23;7.18;;;7.40;99.90;;;;;;5069896;28;20045;-65
2021/01/20 02:31:49;;;;;;;13.85;6.38;;;7.40;99.90;;;;;;5056217;28;20408;-66
2021/01/20 02:34:21;;;;;;;18.65;7.45;;;7.40;99.90;;;;;;5064080;28;20079;-66
2021/01/20 02:37:10;;;;;;;11.15;5.63;;;7.40;99.90;;;;;;5054902;28;20064;-66
2021/01/20 02:47:11;;;;;;;11.20;5.93;;;7.40;99.90;;;;;;5054716;28;20050;-66
2021/01/20 02:49:43;;;;;;;13.85;7.25;;;7.30;99.90;;;;;;5057423;28;20044;-66
2021/01/20 02:52:26;;;;;;;14.55;8.35;;;7.30;99.90;;;;;;5066794;28;20438;-66
2021/01/20 02:55:01;;;;;;;13.38;7.53;;;7.30;99.90;;;;;;5061527;28;20071;-65
2021/01/20 03:01:45;;;;;;;12.20;6.28;;;7.30;99.90;;;;;;5040882;28;20420;-66
2021/01/20 03:04:12;;;;;;;20.07;7.27;;;7.20;99.90;;;;;;5054170;28;20044;-65
2021/01/20 03:06:59;;;;;;;13.77;7.57;;;7.30;99.90;;;;;;5057260;28;20052;-66
2021/01/20 03:09:33;;;;;;;13.57;6.55;;;7.30;99.90;;;;;;5056296;28;20041;-66
2021/01/20 03:12:03;;;;;;;17.63;8.80;;;7.30;99.90;;;;;;5067923;28;20629;-66
2021/01/20 03:14:54;;;;;;;15.38;7.40;;;7.20;99.90;;;;;;5072917;28;20651;-66
2021/01/20 03:21:40;;;;;;;14.00;7.30;;;7.20;99.90;;;;;;5058951;28;20093;-66
2021/01/20 03:24:12;;;;;;;16.25;7.63;;;7.20;99.90;;;;;;5033153;28;20124;-66
2021/01/20 03:27:17;;;;;;;19.30;8.15;;;7.20;99.90;;;;;;5035473;28;20053;-66
2021/01/20 03:29:48;;;;;;;17.38;7.63;;;7.20;99.90;;;;;;5041338;28;20477;-66
2021/01/20 03:32:17;;;;;;;13.57;7.10;;;7.20;99.90;;;;;;5055927;28;20063;-66
2021/01/20 03:34:47;;;;;;;14.05;8.07;;;7.20;99.90;;;;;;5036898;28;20096;-65
2021/01/20 03:37:15;;;;;;;14.52;7.38;;;7.20;99.90;;;;;;5041716;28;20116;-66
2021/01/20 03:39:49;;;;;;;14.02;7.10;;;7.30;99.90;;;;;;5025085;28;20099;-66
2021/01/20 03:46:47;;;;;;;14.38;7.00;;;7.20;99.90;;;;;;5050429;28;20044;-66
2021/01/20 03:49:19;;;;;;;13.98;7.68;;;7.20;99.90;;;;;;5046594;28;20044;-66
2021/01/20 03:51:51;;;;;;;17.40;7.47;;;7.30;99.90;;;;;;5046187;28;20105;-66
2021/01/20 03:54:22;;;;;;;12.77;6.55;;;7.20;99.90;;;;;;5045098;28;20503;-66
2021/01/20 03:56:48;;;;;;;14.23;6.97;;;7.30;99.90;;;;;;5053005;28;20048;-65
2021/01/20 03:59:16;;;;;;;14.52;7.28;;;7.30;99.90;;;;;;5053399;28;20043;-66
2021/01/20 04:01:48;;;;;;;14.35;6.53;;;7.30;99.90;;;;;;5044847;28;20044;-66
2021/01/20 04:04:48;;;;;;;16.50;8.25;;;7.30;99.90;;;;;;5054771;28;20123;-66
2021/01/20 04:07:19;;;;;;;13.65;7.15;;;7.30;99.90;;;;;;5050948;28;20481;-66
2021/01/20 04:09:53;;;;;;;14.40;7.13;;;7.30;99.90;;;;;;5052074;28;20053;-66
2021/01/20 04:12:37;;;;;;;;;;;7.30;99.90;;;;;;5021090;28;20048;-66
2021/01/20 04:15:23;;;;;;;11.43;6.47;;;7.30;99.90;;;;;;5023909;28;19921;-65
2021/01/20 04:18:01;;;;;;;11.48;6.13;;;7.30;99.90;;;;;;5031675;28;20120;-65
2021/01/20 04:20:45;;;;;;;19.05;8.90;;;7.30;99.90;;;;;;5038943;28;20068;-66
2021/01/20 04:26:57;;;;;;;12.95;7.25;;;7.30;99.90;;;;;;5016284;28;20448;-66
2021/01/20 04:29:26;;;;;;;14.55;7.70;;;7.30;99.90;;;;;;5016235;28;20500;-66
2021/01/20 04:32:24;;;;;;;13.65;7.20;;;7.40;99.90;;;;;;5040153;28;20540;-66
2021/01/20 04:35:15;;;;;;;15.23;7.90;;;7.40;99.90;;;;;;5042597;28;20040;-66
2021/01/20 04:41:53;;;;;;;13.07;6.90;;;7.30;99.90;;;;;;5050855;28;20032;-66
2021/01/20 04:44:34;;;;;;;12.73;7.20;;;7.30;99.90;;;;;;5035643;28;20042;-66
2021/01/20 04:54:31;;;;;;;16.45;7.78;;;7.30;99.90;;;;;;5036157;28;20057;-65
2021/01/20 04:56:57;;;;;;;13.85;6.85;;;7.30;99.90;;;;;;5035594;28;20057;-66
2021/01/20 05:00:02;;;;;;;16.25;7.90;;;7.30;99.90;;;;;;5063794;28;20045;-66
2021/01/20 05:02:48;;;;;;;15.05;8.48;;;7.30;99.90;;;;;;5067628;28;20483;-65
2021/01/20 05:09:24;;;;;;;12.75;7.43;;;7.30;99.90;;;;;;5049082;28;20530;-65
2021/01/20 05:11:58;;;;;;;13.82;7.93;;;7.30;99.90;;;;;;5058940;28;20087;-66
2021/01/20 05:18:14;;;;;;;15.25;7.28;;;7.30;99.90;;;;;;5040893;28;20040;-67
2021/01/20 05:20:46;;;;;;;15.25;8.20;;;7.30;99.90;;;;;;5060457;28;20476;-66
2021/01/20 05:27:30;;;;;;;14.82;7.57;;;7.30;99.90;;;;;;5060440;28;20107;-66
2021/01/20 05:30:06;;;;;;;14.68;7.55;;;7.30;99.90;;;;;;5058420;28;20036;-66
2021/01/20 05:37:16;;;;;;;13.77;7.85;;;7.30;99.90;;;;;;5067718;28;20074;-66
2021/01/20 05:44:28;;;;;;;12.65;7.07;;;7.40;99.90;;;;;;5054984;28;20040;-66
2021/01/20 05:47:19;;;;;;;14.85;7.88;;;7.40;99.90;;;;;;5034585;28;20045;-66
2021/01/20 05:50:15;;;;;;;12.60;7.15;;;7.40;99.90;;;;;;5035736;28;20071;-65
2021/01/20 06:14:33;;;;;;;16.10;7.07;;;7.50;99.90;;;;;;5069903;28;20174;-66
2021/01/20 06:17:50;;;;;;;12.32;6.55;;;7.40;99.90;;;;;;5065421;28;20044;-65
2021/01/20 06:20:23;;;;;;;12.68;6.53;;;7.60;99.90;;;;;;5057712;28;20033;-65
2021/01/20 06:30:32;;;;;;;12.20;6.43;;;7.50;99.90;;;;;;5033918;28;20053;-65
2021/01/20 06:33:19;;;;;;;13.43;7.20;;;7.50;99.90;;;;;;5057344;28;20607;-66
2021/01/20 06:35:50;;;;;;;13.93;6.28;;;7.50;99.90;;;;;;5045001;28;20530;-65
2021/01/20 06:38:39;;;;;;;12.90;6.20;;;7.50;99.90;;;;;;5067246;28;20044;-66
2021/01/20 06:48:55;;;;;;;14.68;6.68;;;7.60;99.90;;;;;;5037899;28;20473;-65
2021/01/20 06:55:47;;;;;;;9.85;5.32;;;7.60;99.90;;;;;;5050562;28;20048;-66
2021/01/20 06:58:30;;;;;;;11.55;6.32;;;7.60;99.90;;;;;;5011165;28;20073;-65
2021/01/20 07:05:06;;;;;;;10.75;5.72;;;7.60;99.90;;;;;;4993453;28;20112;-66
2021/01/20 07:08:10;;;;;;;12.10;6.45;;;7.60;99.90;;;;;;4972513;28;20502;-66
2021/01/20 07:10:57;;;;;;;9.00;5.65;;;7.60;99.90;;;;;;5014764;28;20049;-66
2021/01/20 07:13:38;;;;;;;12.07;6.43;;;7.60;99.90;;;;;;5048917;28;20068;-66
2021/01/20 07:16:16;;;;;;;16.88;7.38;;;7.50;99.90;;;;;;5044490;28;20041;-66
2021/01/20 07:18:52;;;;;;;13.52;6.30;;;7.50;99.90;;;;;;5062209;28;20404;-66
2021/01/20 07:25:11;;;;;;;13.20;6.00;;;7.50;99.90;;;;;;5055244;28;20051;-63
2021/01/20 07:27:49;;;;;;;13.68;6.03;;;7.50;99.90;;;;;;5070752;28;20063;-62
2021/01/20 07:30:21;;;;;;;10.20;5.95;;;7.60;99.90;;;;;;5058208;28;20045;-62
2021/01/20 07:33:19;;;;;;;11.80;6.07;;;7.50;99.90;;;;;;5059503;28;20381;-62
2021/01/20 07:35:46;;;;;;;9.25;5.82;;;7.50;99.90;;;;;;5048687;28;20594;-63
2021/01/20 07:38:14;;;;;;;13.35;6.10;;;7.50;99.90;;;;;;5048894;28;20049;-63
2021/01/20 07:40:44;;;;;;;10.20;5.13;;;7.50;99.90;;;;;;5021196;28;20476;-63
2021/01/20 07:47:40;;;;;;;10.20;5.72;;;7.50;99.90;;;;;;5039522;28;20098;-62
2021/01/20 07:58:14;;;;;;;9.75;5.07;;;7.50;99.90;;;;;;5033553;28;20429;-64
2021/01/20 08:05:16;;;;;;;9.57;5.25;;;7.50;99.90;;;;;;5033749;28;20035;-63
2021/01/20 08:15:49;;;;;;;10.75;5.68;;;7.50;99.90;;;;;;5054654;28;20495;-63
2021/01/20 08:22:51;;;;;;;8.93;5.97;;;7.50;99.90;;;;;;5042484;28;20032;-67
2021/01/20 08:25:34;;;;;;;10.45;5.97;;;7.50;99.90;;;;;;5033685;28;20533;-65
2021/01/20 08:28:15;;;;;;;10.25;5.85;;;7.50;99.90;;;;;;5051530;28;20044;-64
2021/01/20 08:31:30;;;;;;;9.20;5.40;;;7.60;99.90;;;;;;5056140;28;20041;-63
2021/01/20 08:38:09;;;;;;;8.60;5.00;;;7.50;99.90;;;;;;5064984;28;20329;-63
2021/01/20 08:41:13;;;;;;;10.88;5.50;;;7.50;99.90;;;;;;5066002;28;20044;-63
2021/01/20 08:43:41;;;;;;;10.10;5.20;;;7.60;99.90;;;;;;5060947;28;20041;-62
2021/01/20 08:50:28;;;;;;;9.15;5.72;;;7.60;99.90;;;;;;5070366;28;20058;-64
2021/01/20 08:53:05;;;;;;;9.00;4.18;;;7.60;99.90;;;;;;5060837;28;20079;-63
2021/01/20 08:55:34;;;;;;;11.18;5.88;;;7.60;99.90;;;;;;5071819;28;20112;-62
2021/01/20 08:58:31;;;;;;;9.25;5.20;;;7.70;99.90;;;;;;5055486;28;20041;-63
2021/01/20 09:01:15;;;;;;;9.80;5.05;;;7.70;99.90;;;;;;5072231;28;20129;-62
2021/01/20 09:03:55;;;;;;;9.60;5.15;;;7.70;99.90;;;;;;5045740;28;20040;-62
2021/01/20 09:10:30;;;;;;;12.00;4.30;;;7.70;99.90;;;;;;5063252;28;20035;-63
2021/01/20 09:13:03;;;;;;;9.80;4.80;;;7.80;99.90;;;;;;5001377;28;20041;-63
2021/01/20 09:15:31;;;;;;;9.23;4.97;;;7.80;99.90;;;;;;5035224;28;20050;-63
2021/01/20 09:18:07;;;;;;;9.65;5.03;;;7.80;99.90;;;;;;5035029;28;20045;-63
2021/01/20 09:20:38;;;;;;;11.35;4.57;;;7.80;99.90;;;;;;5035872;28;20090;-63
2021/01/20 09:23:06;;;;;;;7.18;4.47;;;7.90;99.90;;;;;;5054810;28;20473;-64
2021/01/20 09:25:36;;;;;;;8.98;4.72;;;8.00;99.90;;;;;;5058580;28;20073;-63
2021/01/20 09:28:09;;;;;;;9.32;4.75;;;7.90;99.90;;;;;;5022693;28;20053;-63
2021/01/20 09:30:41;;;;;;;9.57;4.97;;;7.90;99.90;;;;;;5047294;28;20399;-63
2021/01/20 09:33:10;;;;;;;7.50;4.32;;;7.90;99.90;;;;;;5054728;28;20041;-63
2021/01/20 09:36:00;;;;;;;9.32;4.40;;;7.90;99.90;;;;;;5071113;28;20048;-62
2021/01/20 09:43:16;;;;;;;6.25;3.50;;;7.90;99.90;;;;;;5054599;28;20031;-64
2021/01/20 09:45:45;;;;;;;7.10;3.67;;;8.00;99.90;;;;;;5065169;28;20051;-63
2021/01/20 09:48:48;;;;;;;7.63;4.07;;;8.10;99.90;;;;;;5072938;28;20045;-64
2021/01/20 09:51:20;;;;;;;7.32;3.60;;;8.00;99.90;;;;;;5062211;28;20369;-65
2021/01/20 09:57:53;;;;;;;7.53;4.28;;;8.10;99.90;;;;;;5064773;28;20543;-63
2021/01/20 10:00:45;;;;;;;7.20;4.18;;;8.20;99.90;;;;;;5035930;28;20045;-65
2021/01/20 10:03:18;;;;;;;5.38;3.60;;;8.10;99.90;;;;;;5067427;28;20037;-65
2021/01/20 10:06:25;;;;;;;7.50;3.72;;;8.20;99.90;;;;;;5071334;28;20036;-65
2021/01/20 10:13:21;;;;;;;6.03;3.72;;;8.20;99.90;;;;;;5066658;28;20083;-64
2021/01/20 10:15:53;;;;;;;8.57;3.45;;;8.30;99.90;;;;;;5015873;28;20405;-65
2021/01/20 10:18:32;;;;;;;7.53;3.72;;;8.30;99.90;;;;;;5042514;28;20098;-65
2021/01/20 10:20:59;;;;;;;10.00;3.55;;;8.30;99.90;;;;;;5035179;28;20470;-65
2021/01/20 10:23:52;;;;;;;5.13;3.53;;;8.40;99.90;;;;;;5073621;28;20491;-64
2021/01/20 10:26:38;;;;;;;10.20;4.28;;;8.40;99.90;;;;;;5027063;28;20053;-65
2021/01/20 10:32:57;;;;;;;4.70;3.08;;;8.40;99.90;;;;;;5048690;28;19916;-65
2021/01/20 10:35:56;;;;;;;4.97;2.95;;;8.50;99.90;;;;;;5063631;28;20036;-67
2021/01/20 10:39:00;;;;;;;8.32;3.17;;;8.50;99.90;;;;;;5063726;28;20391;-65
2021/01/20 10:46:01;;;;;;;6.60;3.20;;;8.50;99.90;;;;;;5059403;28;20071;-63
2021/01/20 10:48:32;;;;;;;7.63;3.65;;;8.50;99.90;;;;;;5051227;28;20041;-63
2021/01/20 10:51:00;;;;;;;7.13;3.28;;;8.60;99.90;;;;;;5064799;28;20044;-65
2021/01/20 10:53:41;;;;;;;5.45;3.30;;;8.60;99.90;;;;;;5072142;28;20040;-67
2021/01/20 10:56:58;;;;;;;10.00;2.80;;;8.70;99.90;;;;;;5053203;28;20129;-67
2021/01/20 11:03:32;;;;;;;6.50;3.42;;;8.70;99.90;;;;;;5057484;28;20538;-66
2021/01/20 11:06:34;;;;;;;6.55;3.85;;;8.70;99.90;;;;;;5053161;28;20488;-68
2021/01/20 11:09:05;;;;;;;5.70;3.10;;;8.80;99.90;;;;;;5032531;28;20088;-69
2021/01/20 11:11:53;;;;;;;4.10;2.38;;;8.80;99.90;;;;;;5041015;28;20488;-65
2021/01/20 11:18:36;;;;;;;6.20;3.00;;;8.90;99.90;;;;;;5067390;28;20438;-66
2021/01/20 11:21:05;;;;;;;6.93;2.90;;;8.90;99.90;;;;;;5059141;28;20091;-66
2021/01/20 11:23:55;;;;;;;6.88;2.97;;;9.00;99.90;;;;;;5064300;28;20044;-66
2021/01/20 11:26:33;;;;;;;6.28;2.70;;;8.90;99.90;;;;;;5030359;28;20048;-66
2021/01/20 11:29:50;;;;;;;4.35;2.40;;;8.90;99.90;;;;;;5053893;28;20076;-65
2021/01/20 11:32:26;;;;;;;7.55;2.80;;;9.00;99.90;;;;;;5052957;28;20396;-64
2021/01/20 11:35:23;;;;;;;7.35;2.72;;;8.90;99.90;;;;;;5068529;28;20059;-62
2021/01/20 11:37:56;;;;;;;5.45;2.53;;;8.90;99.90;;;;;;5056264;28;20504;-64
2021/01/20 11:40:28;;;;;;;3.75;2.22;;;8.90;99.90;;;;;;5039195;28;20065;-65
2021/01/20 11:43:00;;;;;;;6.57;2.40;;;8.90;99.90;;;;;;5055868;28;20155;-65
2021/01/20 11:45:38;;;;;;;6.97;2.60;;;8.90;99.90;;;;;;5032914;28;20073;-66
2021/01/20 11:55:28;;;;;;;3.88;2.00;;;8.90;99.90;;;;;;5057517;28;20040;-64
2021/01/20 12:02:28;;;;;;;4.95;1.90;;;8.90;99.90;;;;;;5065565;28;20036;-64
2021/01/20 12:05:00;;;;;;;3.88;2.13;;;8.90;99.90;;;;;;5062125;28;20044;-65
2021/01/20 12:07:32;;;;;;;3.20;1.67;;;8.90;99.90;;;;;;5066676;28;20041;-65
2021/01/20 12:10:07;;;;;;;4.40;1.88;;;9.00;99.90;;;;;;5061378;28;20056;-65
2021/01/20 12:12:34;;;;;;;5.13;1.90;;;9.00;99.90;;;;;;5037821;28;20056;-63
2021/01/20 12:15:40;;;;;;;3.90;1.90;;;9.10;99.90;;;;;;5060431;28;20127;-64
2021/01/20 12:22:39;;;;;;;6.75;2.08;;;9.10;99.90;;;;;;5041205;28;20083;-69
2021/01/20 12:25:11;;;;;;;4.38;1.90;;;9.20;99.90;;;;;;5071192;28;20079;-69
2021/01/20 12:35:14;;;;;;;6.22;2.13;;;9.20;99.90;;;;;;5035869;28;20044;-65
2021/01/20 12:37:41;;;;;;;6.22;1.73;;;9.20;99.90;;;;;;5036669;28;20077;-65
2021/01/20 12:40:21;;;;;;;3.78;1.90;;;9.20;99.90;;;;;;5059926;28;20037;-65
2021/01/20 12:42:53;;;;;;;2.42;1.30;;;9.30;99.90;;;;;;5059938;28;20060;-65
2021/01/20 12:45:21;;;;;;;4.72;1.65;;;9.20;99.90;;;;;;5071623;28;20044;-64
2021/01/20 12:48:14;;;;;;;6.85;1.70;;;9.20;99.90;;;;;;5072742;28;20041;-65
2021/01/20 12:55:03;;;;;;;7.47;1.60;;;9.30;99.90;;;;;;5048292;28;20056;-64
2021/01/20 12:57:32;;;;;;;3.42;1.80;;;9.30;99.90;;;;;;5055135;28;20045;-66
2021/01/20 13:00:05;;;;;;;4.63;1.52;;;9.30;99.90;;;;;;5063307;28;20044;-65
2021/01/20 13:02:34;;;;;;;3.17;1.63;;;9.40;99.90;;;;;;5067132;28;20106;-65
2021/01/20 13:05:29;;;;;;;3.58;1.58;;;9.30;99.90;;;;;;5051164;28;20037;-65
2021/01/20 13:15:16;;;;;;;3.92;1.90;;;9.40;99.90;;;;;;5055297;28;20138;-64
2021/01/20 13:17:54;;;;;;;4.00;1.40;;;9.40;99.90;;;;;;5072684;28;20051;-65
2021/01/20 13:20:48;;;;;;;5.03;1.45;;;9.40;99.90;;;;;;5070118;28;20047;-64
2021/01/20 13:23:15;;;;;;;4.18;1.30;;;9.50;99.90;;;;;;5074824;28;20484;-64
2021/01/20 13:25:41;;;;;;;3.35;1.50;;;9.40;99.90;;;;;;5074093;28;20089;-65
2021/01/20 13:28:35;;;;;;;5.10;1.55;;;9.50;99.90;;;;;;5062214;28;20045;-64
2021/01/20 13:35:19;;;;;;;3.85;1.23;;;9.50;99.90;;;;;;5054538;28;20067;-64
2021/01/20 13:42:42;;;;;;;2.72;1.30;;;9.50;99.90;;;;;;5054133;28;20036;-64
2021/01/20 13:45:12;;;;;;;2.78;1.10;;;9.50;99.90;;;;;;5065406;28;20044;-65
2021/01/20 13:48:13;;;;;;;3.78;1.23;;;9.40;99.90;;;;;;5056916;28;20456;-64
2021/01/20 13:55:09;;;;;;;3.47;1.27;;;9.40;99.90;;;;;;5066240;28;20044;-65
2021/01/20 13:57:41;;;;;;;4.72;1.45;;;9.50;99.90;;;;;;5068497;28;20048;-65
2021/01/20 14:00:08;;;;;;;3.05;1.50;;;9.60;99.90;;;;;;5058077;28;20044;-63
2021/01/20 14:02:46;;;;;;;4.22;1.73;;;9.50;99.90;;;;;;5054178;28;20045;-64
2021/01/20 14:05:24;;;;;;;2.60;1.48;;;9.50;99.90;;;;;;5070633;28;20044;-64
2021/01/20 14:08:21;;;;;;;2.58;1.30;;;9.50;99.90;;;;;;5063444;28;20115;-65
2021/01/20 14:10:55;;;;;;;3.15;1.50;;;9.50;99.90;;;;;;5042630;28;20044;-65
2021/01/20 14:13:28;;;;;;;5.05;1.50;;;9.50;99.90;;;;;;5042477;28;20047;-64
2021/01/20 14:20:13;;;;;;;3.58;1.70;;;9.40;99.90;;;;;;5062909;28;20416;-65
2021/01/20 14:33:54;;;;;;;2.97;1.33;;;9.30;99.90;;;;;;5041272;28;20395;-65
2021/01/20 14:40:40;;;;;;;2.78;1.30;;;9.20;99.90;;;;;;5033377;28;20099;-66
2021/01/20 14:43:15;;;;;;;4.57;1.38;;;9.20;99.90;;;;;;5056894;28;20484;-67
2021/01/20 14:46:01;;;;;;;3.70;1.70;;;9.10;99.90;;;;;;5016625;28;20041;-66
2021/01/20 14:53:09;;;;;;;4.07;1.50;;;9.10;99.90;;;;;;5038931;28;20531;-65
2021/01/20 14:55:37;;;;;;;4.85;1.52;;;9.00;99.90;;;;;;5063620;28;20407;-64
2021/01/20 14:58:09;;;;;;;2.30;1.30;;;9.00;99.90;;;;;;5060646;28;20055;-65
2021/01/20 15:00:44;;;;;;;4.47;1.50;;;9.00;99.90;;;;;;5073284;28;20037;-66
2021/01/20 15:03:18;;;;;;;2.97;1.60;;;9.00;99.90;;;;;;5073251;28;20037;-65
2021/01/20 15:05:46;;;;;;;3.63;1.90;;;9.00;99.90;;;;;;5031602;28;20041;-65
2021/01/20 15:08:20;;;;;;;5.43;1.70;;;9.00;99.90;;;;;;5058367;28;20477;-65
2021/01/20 15:10:47;;;;;;;3.00;1.30;;;9.10;99.90;;;;;;5049602;28;20049;-65
2021/01/20 15:13:15;;;;;;;2.80;1.30;;;9.00;99.90;;;;;;5054440;28;20041;-65
2021/01/20 15:15:49;;;;;;;4.80;1.58;;;9.20;99.90;;;;;;5071215;28;20503;-65
2021/01/20 15:18:20;;;;;;;2.95;1.30;;;9.00;99.90;;;;;;5033579;28;20042;-65
2021/01/20 15:20:54;;;;;;;2.75;1.25;;;9.00;99.90;;;;;;5058587;28;20041;-64
2021/01/20 15:23:46;;;;;;;3.65;1.83;;;9.00;99.90;;;;;;5076847;28;20041;-64
2021/01/20 15:30:30;;;;;;;3.40;1.40;;;9.00;99.90;;;;;;5057634;28;20051;-65
2021/01/20 15:33:27;;;;;;;3.28;1.40;;;9.00;99.90;;;;;;5073094;28;20122;-65
2021/01/20 15:35:56;;;;;;;2.90;1.40;;;9.00;99.90;;;;;;5071068;28;20051;-64
2021/01/20 15:38:51;;;;;;;2.95;1.30;;;9.00;99.90;;;;;;5065264;28;20048;-65
2021/01/20 15:45:42;;;;;;;4.28;1.40;;;8.90;99.90;;;;;;5061350;28;20565;-66
2021/01/20 15:48:13;;;;;;;2.15;1.23;;;8.90;99.50;;;;;;5062281;28;20484;-65
2021/01/20 15:50:42;;;;;;;2.60;1.20;;;9.00;99.90;;;;;;5055526;28;20049;-68
2021/01/20 16:00:42;;;;;;;3.50;1.40;;;8.80;99.10;;;;;;5056473;28;20408;-67
2021/01/20 16:03:09;;;;;;;3.13;1.35;;;8.80;99.50;;;;;;5073292;28;20411;-70
2021/01/20 16:05:43;;;;;;;3.33;1.80;;;8.70;99.70;;;;;;5061135;28;20439;-65
2021/01/20 16:08:17;;;;;;;3.38;1.63;;;8.70;99.60;;;;;;5052354;28;20041;-68
2021/01/20 16:11:15;;;;;;;4.40;1.73;;;8.70;99.30;;;;;;5061443;28;20060;-70
2021/01/20 16:14:01;;;;;;;2.97;1.50;;;8.70;99.50;;;;;;5042101;28;20515;-63
2021/01/20 16:20:41;;;;;;;3.85;1.80;;;8.70;99.00;;;;;;5060899;28;20070;-63
2021/01/20 16:23:16;;;;;;;4.57;1.52;;;8.60;99.30;;;;;;5062281;28;20396;-63
2021/01/20 16:25:51;;;;;;;6.38;1.92;;;8.60;99.30;;;;;;5057540;28;20124;-63
2021/01/20 16:28:28;;;;;;;3.38;1.60;;;8.60;99.00;;;;;;5060129;28;20088;-63
2021/01/20 16:31:26;;;;;;;5.72;1.90;;;8.60;99.60;;;;;;5073583;28;20429;-63
2021/01/20 16:38:14;;;;;;;2.97;1.50;;;8.70;99.60;;;;;;5060862;28;20408;-63
2021/01/20 16:40:46;;;;;;;5.32;2.15;;;8.60;98.50;;;;;;5055173;28;20057;-63
2021/01/20 16:50:52;;;;;;;5.00;1.60;;;8.60;99.00;;;;;;5059738;28;20048;-64
2021/01/20 16:53:29;;;;;;;5.25;1.75;;;8.60;98.80;;;;;;5075304;28;20036;-64
2021/01/20 16:55:56;;;;;;;5.22;2.40;;;8.60;98.30;;;;;;5036178;28;20049;-64
2021/01/20 16:58:28;;;;;;;3.38;1.75;;;8.60;98.40;;;;;;5061633;28;20150;-65
2021/01/20 17:00:59;;;;;;;3.92;1.70;;;8.60;99.10;;;;;;5067258;28;20051;-64
2021/01/20 17:03:32;;;;;;;5.03;2.13;;;8.50;99.10;;;;;;5075278;28;20494;-64
2021/01/20 17:06:04;;;;;;;6.07;2.13;;;8.50;98.80;;;;;;5062807;28;20047;-64
2021/01/20 17:08:38;;;;;;;3.95;1.85;;;8.50;98.10;;;;;;5064634;28;20453;-64
2021/01/20 17:11:06;;;;;;;6.57;1.67;;;8.50;98.40;;;;;;5075020;28;20047;-64
2021/01/20 17:13:33;;;;;;;3.58;1.52;;;8.50;98.20;;;;;;5074882;28;20044;-66
2021/01/20 17:16:05;;;;;;;5.70;1.77;;;8.50;98.80;;;;;;5057703;28;20080;-67
2021/01/20 17:18:32;;;;;;;3.97;1.63;;;8.50;98.20;;;;;;5070552;28;20067;-65
2021/01/20 17:21:04;;;;;;;4.00;1.52;;;8.50;97.40;;;;;;5051992;28;20053;-64
2021/01/20 17:23:36;;;;;;;3.20;1.60;;;8.50;98.00;;;;;;5034947;28;20046;-64
2021/01/20 17:26:06;;;;;;;4.15;1.73;;;8.40;98.70;;;;;;5064853;28;20475;-64
2021/01/20 17:28:32;;;;;;;4.97;2.00;;;8.50;98.40;;;;;;5070887;28;20040;-66
2021/01/20 17:31:01;;;;;;;4.10;1.65;;;8.50;97.70;;;;;;5054893;28;20051;-64
2021/01/20 17:33:33;;;;;;;5.55;1.98;;;8.50;98.90;;;;;;5063032;28;20041;-66
2021/01/20 17:36:05;;;;;;;3.58;1.50;;;8.50;97.60;;;;;;5066124;28;20052;-66
2021/01/20 17:38:35;;;;;;;9.95;3.20;;;8.40;97.90;;;;;;5074995;28;20041;-66
2021/01/20 17:41:01;;;;;;;6.88;2.60;;;8.40;97.80;;;;;;5070131;28;20500;-66
2021/01/20 17:43:30;;;;;;;4.45;2.15;;;8.40;97.20;;;;;;5022638;28;20040;-65
2021/01/20 17:46:07;;;;;;;4.45;2.00;;;8.50;98.50;;;;;;5057798;28;20388;-65
2021/01/20 17:48:44;;;;;;;6.15;2.03;;;8.40;98.50;;;;;;5036588;28;20045;-65
2021/01/20 17:51:37;;;;;;;3.95;1.77;;;8.50;98.50;;;;;;5063233;28;20412;-66
2021/01/20 17:54:09;;;;;;;4.05;1.60;;;8.40;98.40;;;;;;5053606;28;20049;-66
2021/01/20 17:56:41;;;;;;;5.68;1.80;;;8.30;98.10;;;;;;5054200;28;20079;-66
2021/01/20 18:02:47;;;;;;;7.95;2.20;;;8.30;98.50;;;;;;5062512;28;20112;-65
2021/01/20 18:05:42;;;;;;;5.53;2.13;;;8.30;98.50;;;;;;5054120;28;20047;-66
2021/01/20 18:08:16;;;;;;;7.82;2.63;;;8.20;98.10;;;;;;5063108;28;20040;-64
2021/01/20 18:10:51;;;;;;;8.70;2.42;;;8.20;98.00;;;;;;5026040;28;20044;-65
2021/01/20 18:13:19;;;;;;;3.75;2.15;;;8.30;97.60;;;;;;5068926;28;20045;-66
2021/01/20 18:16:00;;;;;;;6.55;2.30;;;8.30;97.30;;;;;;5053851;28;20049;-68
2021/01/20 18:18:51;;;;;;;5.93;2.65;;;8.30;98.10;;;;;;5060541;28;20037;-65
2021/01/20 18:21:33;;;;;;;4.65;2.42;;;8.20;98.30;;;;;;5037833;28;20041;-64
2021/01/20 18:28:01;;;;;;;6.20;2.33;;;8.20;97.70;;;;;;5055351;28;20090;-66
2021/01/20 18:30:48;;;;;;;4.95;1.83;;;8.20;98.70;;;;;;5049278;28;20041;-66
2021/01/20 18:33:16;;;;;;;3.22;1.83;;;8.10;98.60;;;;;;5053515;28;20103;-67
2021/01/20 18:35:48;;;;;;;7.50;2.50;;;8.10;97.70;;;;;;5052517;28;20045;-66
2021/01/20 18:38:26;;;;;;;;;;;;;;;;;;;;;
2021/01/20 18:45:52;;;;;;;3.88;2.17;;;8.10;98.40;;;;;;5033705;28;20040;-67
2021/01/20 18:56:31;;;;;;;4.60;1.63;;;8.10;98.00;;;;;;5045729;28;20428;-68
2021/01/20 19:03:16;;;;;;;5.43;2.33;;;8.10;97.90;;;;;;5038300;28;20032;-67
2021/01/20 19:06:02;;;;;;;7.03;2.65;;;8.10;98.00;;;;;;5041998;28;20041;-66
2021/01/20 19:08:54;;;;;;;4.30;1.92;;;8.00;97.90;;;;;;5053031;28;20396;-66
2021/01/20 19:11:21;;;;;;;5.07;2.10;;;8.10;97.90;;;;;;5037308;28;20056;-66
2021/01/20 19:14:03;;;;;;;6.65;2.60;;;8.10;97.70;;;;;;5031948;28;20045;-66
2021/01/20 19:20:44;;;;;;;5.65;2.33;;;8.10;97.60;;;;;;5046829;28;20557;-66
2021/01/20 19:23:17;;;;;;;4.28;2.28;;;8.10;98.00;;;;;;5046363;28;20053;-65
2021/01/20 19:25:44;;;;;;;5.60;2.17;;;8.10;97.90;;;;;;5026264;28;20092;-65
2021/01/20 19:28:22;;;;;;;6.85;3.03;;;8.10;97.70;;;;;;5013476;28;20038;-64
2021/01/20 19:30:50;;;;;;;5.55;2.90;;;8.10;97.70;;;;;;5050264;28;20098;-65
2021/01/20 19:33:22;;;;;;;7.20;2.85;;;8.10;97.80;;;;;;5033442;28;20044;-65
2021/01/20 19:44:12;;;;;;;5.18;2.33;;;8.10;98.30;;;;;;5034950;28;20495;-65
2021/01/20 19:47:03;;;;;;;6.40;3.65;;;8.10;97.60;;;;;;5047548;28;20396;-65
2021/01/20 19:53:12;;;;;;;6.47;2.38;;;8.20;97.50;;;;;;5063136;28;20094;-65
2021/01/20 19:56:00;;;;;;;6.10;2.20;;;8.20;97.60;;;;;;5068546;28;20096;-66
2021/01/20 20:02:15;;;;;;;6.85;2.05;;;8.20;97.50;;;;;;5052592;28;20467;-66
2021/01/20 20:08:22;;;;;;;7.95;2.67;;;8.10;96.70;;;;;;5056591;28;20035;-66
2021/01/20 20:10:51;;;;;;;5.20;2.60;;;8.30;97.60;;;;;;5058599;28;20041;-67
2021/01/20 20:13:26;;;;;;;4.75;2.65;;;8.30;97.30;;;;;;5070381;28;20039;-66
2021/01/20 20:15:54;;;;;;;8.18;2.50;;;8.30;97.50;;;;;;5062951;28;20041;-65